Latest Weather Observations for Little Bay

IDN60801

Issued at 5:32 pm EST Thursday 18 July 2019 (issued every 10 minutes, with the page automatically refreshed every 10 minutes)

About weather observations | Map of weather stations | Latest weather observations for NSW | Other Formats
Station Details ID: 066051 Name: LITTLE BAY (THE COAST GOLF CLUB) Lat: -33.98 Lon: 151.25 Height: 22.0 m
Data from the previous 72 hours. | See also: Recent months at Little Bay
Date/Time
EST
Temp
°C
App
Temp
°C
Dew
Point
°C
Rel
Hum
%
Delta-T
°C
Wind Press
QNH
hPa
Press
MSL
hPa
Rain since
9am
mm
Dir  Spd
km/h
Gust
km/h
Spd
kts
Gust
kts
18/05:30pm - - - - - SSW 6 7 3 4 - - -
18/05:00pm - - - - - SSW 4 6 2 3 - - -
18/04:30pm - - - - - S 7 9 4 5 - - -
18/04:00pm - - - - - SSE 13 17 7 9 - - -
18/03:30pm - - - - - SE 11 15 6 8 - - -
18/03:00pm - - - - - SSE 13 17 7 9 - - -
18/02:30pm - - - - - SSE 11 15 6 8 - - -
18/02:00pm - - - - - S 11 17 6 9 - - -
18/01:30pm - - - - - S 13 15 7 8 - - -
18/01:00pm - - - - - S 15 20 8 11 - - -
18/12:30pm - - - - - WSW 13 20 7 11 - - -
18/12:00pm - - - - - W 13 19 7 10 - - -
18/11:30am - - - - - W 17 22 9 12 - - -
18/11:00am - - - - - W 17 24 9 13 - - -
18/10:30am - - - - - W 19 26 10 14 - - -
18/10:00am - - - - - W 17 30 9 16 - - -
18/09:30am - - - - - W 20 28 11 15 - - -
18/09:00am - - - - - W 20 26 11 14 - - -
18/08:30am - - - - - W 17 22 9 12 - - -
18/08:00am - - - - - WNW 11 19 6 10 - - -
18/07:30am - - - - - WNW 9 20 5 11 - - -
18/07:00am - - - - - WNW 6 11 3 6 - - -
18/06:30am - - - - - WNW 7 15 4 8 - - -
18/06:00am - - - - - NW 6 9 3 5 - - -
18/05:30am - - - - - NW 7 13 4 7 - - -
18/05:00am - - - - - W 13 24 7 13 - - -
18/04:30am - - - - - W 13 22 7 12 - - -
18/04:00am - - - - - W 17 26 9 14 - - -
18/03:30am - - - - - W 20 30 11 16 - - -
18/03:00am - - - - - W 19 30 10 16 - - -
18/02:30am - - - - - W 17 30 9 16 - - -
18/02:00am - - - - - W 22 35 12 19 - - -
18/01:30am - - - - - W 13 22 7 12 - - -
18/01:00am - - - - - WNW 9 19 5 10 - - -
18/12:30am - - - - - WNW 13 26 7 14 - - -
18/12:00am - - - - - WNW 15 32 8 17 - - -
 
Date/Time
EST
Temp
°C
App
Temp
°C
Dew
Point
°C
Rel
Hum
%
Delta-T
°C
Wind Press
QNH
hPa
Press
MSL
hPa
Rain since
9am
mm
Dir  Spd
km/h
Gust
km/h
Spd
kts
Gust
kts
17/11:30pm - - - - - W 19 30 10 16 - - -
17/11:00pm - - - - - W 13 26 7 14 - - -
17/10:30pm - - - - - WNW 13 24 7 13 - - -
17/10:00pm - - - - - W 20 28 11 15 - - -
17/09:30pm - - - - - W 19 32 10 17 - - -
17/09:00pm - - - - - WSW 20 30 11 16 - - -
17/08:30pm - - - - - W 20 32 11 17 - - -
17/08:00pm - - - - - WSW 26 44 14 24 - - -
17/07:30pm - - - - - WSW 22 35 12 19 - - -
17/07:00pm - - - - - W 15 30 8 16 - - -
17/06:30pm - - - - - W 17 28 9 15 - - -
17/06:00pm - - - - - WSW 20 32 11 17 - - -
17/05:30pm - - - - - W 17 35 9 19 - - -
17/05:00pm - - - - - W 9 13 5 7 - - -
17/04:30pm - - - - - NW 6 11 3 6 - - -
17/04:00pm - - - - - NNW 7 13 4 7 - - -
17/03:30pm - - - - - W 9 17 5 9 - - -
17/03:00pm - - - - - W 9 15 5 8 - - -
17/02:30pm - - - - - W 9 17 5 9 - - -
17/02:00pm - - - - - WNW 13 20 7 11 - - -
17/01:30pm - - - - - W 15 24 8 13 - - -
17/01:00pm - - - - - WNW 11 22 6 12 - - -
17/12:30pm - - - - - W 15 24 8 13 - - -
17/12:00pm - - - - - W 19 26 10 14 - - -
17/11:30am - - - - - W 15 24 8 13 - - -
17/11:00am - - - - - W 17 28 9 15 - - -
17/10:30am - - - - - WNW 15 24 8 13 - - -
17/10:00am - - - - - WNW 19 28 10 15 - - -
17/09:30am - - - - - W 20 28 11 15 - - -
17/09:00am - - - - - WNW 15 22 8 12 - - -
17/08:30am - - - - - WNW 11 17 6 9 - - -
17/08:00am - - - - - WNW 11 17 6 9 - - -
17/07:30am - - - - - WNW 13 19 7 10 - - -
17/07:00am - - - - - WNW 13 17 7 9 - - -
17/06:30am - - - - - W 15 20 8 11 - - -
17/06:00am - - - - - W 17 22 9 12 - - -
17/05:30am - - - - - WNW 15 20 8 11 - - -
17/05:00am - - - - - WNW 15 20 8 11 - - -
17/04:30am - - - - - WNW 11 17 6 9 - - -
17/04:00am - - - - - W 17 24 9 13 - - -
17/03:30am - - - - - WNW 13 20 7 11 - - -
17/03:00am - - - - - WNW 13 19 7 10 - - -
17/02:30am - - - - - WNW 15 20 8 11 - - -
17/02:00am - - - - - WNW 11 22 6 12 - - -
17/01:30am - - - - - WNW 9 15 5 8 - - -
17/01:00am - - - - - WNW 13 17 7 9 - - -
17/12:30am - - - - - WNW 7 15 4 8 - - -
17/12:00am - - - - - WNW 13 22 7 12 - - -
 
Date/Time
EST
Temp
°C
App
Temp
°C
Dew
Point
°C
Rel
Hum
%
Delta-T
°C
Wind Press
QNH
hPa
Press
MSL
hPa
Rain since
9am
mm
Dir  Spd
km/h
Gust
km/h
Spd
kts
Gust
kts
16/11:30pm - - - - - W 15 22 8 12 - - -
16/11:00pm - - - - - W 13 20 7 11 - - -
16/10:30pm - - - - - W 13 24 7 13 - - -
16/10:00pm - - - - - W 15 24 8 13 - - -
16/09:30pm - - - - - W 19 30 10 16 - - -
16/09:00pm - - - - - W 19 28 10 15 - - -
16/08:30pm - - - - - WSW 19 30 10 16 - - -
16/08:00pm - - - - - WSW 19 35 10 19 - - -
16/07:30pm - - - - - WSW 20 33 11 18 - - -
16/07:00pm - - - - - WSW 15 32 8 17 - - -
16/06:30pm - - - - - WSW 20 28 11 15 - - -
16/06:00pm - - - - - WSW 19 28 10 15 - - -
16/05:30pm - - - - - WSW 15 24 8 13 - - -
16/05:00pm - - - - - SW 11 19 6 10 - - -
16/04:30pm - - - - - WSW 13 22 7 12 - - -
16/04:00pm - - - - - WSW 11 20 6 11 - - -
16/03:30pm - - - - - WSW 13 19 7 10 - - -
16/03:00pm - - - - - WSW 13 20 7 11 - - -
16/02:30pm - - - - - W 13 20 7 11 - - -
16/02:00pm - - - - - W 13 20 7 11 - - -
16/01:30pm - - - - - W 13 20 7 11 - - -
16/01:00pm - - - - - W 15 22 8 12 - - -
16/12:30pm - - - - - W 13 20 7 11 - - -
16/12:00pm - - - - - W 17 22 9 12 - - -
16/11:30am - - - - - W 17 22 9 12 - - -
16/11:00am - - - - - W 17 22 9 12 - - -
16/10:30am - - - - - W 17 24 9 13 - - -
16/10:00am - - - - - W 17 24 9 13 - - -
16/09:30am - - - - - W 15 20 8 11 - - -
16/09:00am - - - - - W 13 20 7 11 - - -
16/08:30am - - - - - WNW 13 20 7 11 - - -
16/08:00am - - - - - W 19 30 10 16 - - -
16/07:30am - - - - - WNW 13 19 7 10 - - -
16/07:00am - - - - - WNW 15 20 8 11 - - -
16/06:30am - - - - - WNW 15 24 8 13 - - -
16/06:00am - - - - - WNW 17 24 9 13 - - -
16/05:30am - - - - - WNW 15 22 8 12 - - -
16/05:00am - - - - - WNW 13 20 7 11 - - -
16/04:30am - - - - - WNW 15 20 8 11 - - -
16/04:00am - - - - - W 17 26 9 14 - - -
16/03:30am - - - - - WNW 15 19 8 10 - - -
16/03:00am - - - - - WNW 13 20 7 11 - - -
16/02:30am - - - - - WNW 13 20 7 11 - - -
16/02:00am - - - - - WNW 17 26 9 14 - - -
16/01:30am - - - - - WNW 13 20 7 11 - - -
16/01:00am - - - - - WNW 13 24 7 13 - - -
16/12:30am - - - - - WNW 15 24 8 13 - - -
16/12:00am - - - - - W 15 22 8 12 - - -
 
Date/Time
EST
Temp
°C
App
Temp
°C
Dew
Point
°C
Rel
Hum
%
Delta-T
°C
Wind Press
QNH
hPa
Press
MSL
hPa
Rain since
9am
mm
Dir  Spd
km/h
Gust
km/h
Spd
kts
Gust
kts
15/11:30pm - - - - - WNW 15 24 8 13 - - -
15/11:00pm - - - - - WNW 15 26 8 14 - - -
15/10:30pm - - - - - WNW 13 22 7 12 - - -
15/10:00pm - - - - - WNW 13 20 7 11 - - -
15/09:30pm - - - - - WNW 11 19 6 10 - - -
15/09:00pm - - - - - W 17 30 9 16 - - -
15/08:30pm - - - - - W 17 24 9 13 - - -
15/08:00pm - - - - - W 15 24 8 13 - - -
15/07:30pm - - - - - W 13 22 7 12 - - -
15/07:00pm - - - - - WSW 13 20 7 11 - - -
15/06:30pm - - - - - W 11 19 6 10 - - -
15/06:00pm - - - - - W 11 17 6 9 - - -

Other formats

Comma delimited format used in spreadsheet applications
http://www.bom.gov.au/fwo/IDN60801/IDN60801.94780.axf

JavaScript Object Notation format (JSON) in row-major order
http://www.bom.gov.au/fwo/IDN60801/IDN60801.94780.json

Data quality

Most of these data are generated automatically and are frequently updated. Quality checks on data are not normally performed. It is possible for incorrect values to appear. Refer to information at About Latest Weather Observations and please check the disclaimer before using these data.